Rodovre, Denmark
Current Conditions -  °F | °C
As of 2:20 AM on Saturday 25 Oct 2014 (Local Time) from EKCH Reporting Station
Broken Clouds Broken Clouds  
Wind Chill: 52°   Ceiling: 1100
Heat Index: 52°   Visibility: 6mi
Dew Point: 48°   Wind: 21mph
Humidity: 88%   Direction: 190°S
Pressure: 30.06"   Gusts: NA
Location:  55.68°N, 12.45°E
Report Text: EKCH 250020Z 19018KT 9000 BKN011 11/09 Q1018 NOSIG
Loading
Personal Weather Stations






























Interactive Weather Map
Tropical Storm Tracking
New forecast layout! Learn more

10-Day Weather Forecast

Advertisements
Track Severe Weather on mobile